createdAt,value
2017-02-09T00:00:04.282Z,1031.5
2017-02-09T00:01:06.731Z,1031.5
2017-02-09T00:02:09.514Z,1031.5
2017-02-09T00:03:11.959Z,1031.4
2017-02-09T00:04:14.405Z,1031.5
2017-02-09T00:05:16.852Z,1031.5
2017-02-09T00:07:21.702Z,1031.4
2017-02-09T00:08:24.147Z,1031.4
2017-02-09T00:09:26.589Z,1031.4
2017-02-09T00:10:29.033Z,1031.4
2017-02-09T00:11:31.477Z,1031.4
2017-02-09T00:13:36.328Z,1031.4
2017-02-09T00:14:38.769Z,1031.4
2017-02-09T00:15:41.049Z,1031.5
2017-02-09T00:16:43.496Z,1031.5
2017-02-09T00:17:45.945Z,1031.5
2017-02-09T00:18:48.394Z,1031.5
2017-02-09T00:19:50.857Z,1031.5
2017-02-09T00:21:55.712Z,1031.5
2017-02-09T00:25:02.988Z,1031.6
2017-02-09T00:26:05.268Z,1031.5
2017-02-09T00:27:08.049Z,1031.5
2017-02-09T00:29:12.899Z,1031.6
2017-02-09T00:30:15.179Z,1031.5
2017-02-09T00:31:17.631Z,1031.5
2017-02-09T00:32:20.076Z,1031.5
2017-02-09T00:33:22.546Z,1031.5
2017-02-09T00:34:25.005Z,1031.5
2017-02-09T00:35:27.286Z,1031.6
2017-02-09T00:36:29.772Z,1031.6
2017-02-09T00:37:32.220Z,1031.6
2017-02-09T00:38:34.659Z,1031.6
2017-02-09T00:39:37.109Z,1031.5
2017-02-09T00:40:39.385Z,1031.5
2017-02-09T00:41:41.828Z,1031.6
2017-02-09T00:42:44.270Z,1031.6
2017-02-09T00:43:46.718Z,1031.6
2017-02-09T00:44:49.167Z,1031.6
2017-02-09T00:45:51.613Z,1031.6
2017-02-09T00:46:54.063Z,1031.6
2017-02-09T00:47:56.840Z,1031.6
2017-02-09T00:48:58.783Z,1031.6
2017-02-09T00:50:01.234Z,1031.6
2017-02-09T00:51:03.680Z,1031.6
2017-02-09T00:52:06.127Z,1031.6
2017-02-09T00:53:08.911Z,1031.7
2017-02-09T00:54:11.359Z,1031.6
2017-02-09T00:55:13.811Z,1031.7
2017-02-09T00:56:16.256Z,1031.7
2017-02-09T00:57:18.703Z,1031.7
2017-02-09T00:58:21.180Z,1031.7
2017-02-09T00:59:23.121Z,1031.7
2017-02-09T01:00:25.566Z,1031.7
2017-02-09T01:01:28.014Z,1031.7
2017-02-09T01:02:30.486Z,1031.7
2017-02-09T01:03:32.967Z,1031.7
2017-02-09T01:04:35.415Z,1031.7
2017-02-09T01:05:37.864Z,1031.6
2017-02-09T01:06:40.309Z,1031.7
2017-02-09T01:07:42.759Z,1031.7
2017-02-09T01:08:45.230Z,1031.7
2017-02-09T01:09:47.679Z,1031.7
2017-02-09T01:10:50.126Z,1031.8
2017-02-09T01:12:54.978Z,1031.8
2017-02-09T01:13:57.422Z,1031.7
2017-02-09T01:14:59.877Z,1031.7
2017-02-09T01:16:02.327Z,1031.7
2017-02-09T01:17:04.779Z,1031.7
2017-02-09T01:18:07.225Z,1031.7
2017-02-09T01:19:09.335Z,1031.7
2017-02-09T01:20:11.777Z,1031.7
2017-02-09T01:21:14.222Z,1031.7
2017-02-09T01:22:16.666Z,1031.7
2017-02-09T01:23:19.112Z,1031.7
2017-02-09T01:25:24.299Z,1031.7
2017-02-09T01:26:26.751Z,1031.7
2017-02-09T01:27:29.193Z,1031.7
2017-02-09T01:29:34.043Z,1031.7
2017-02-09T01:30:36.487Z,1031.7
2017-02-09T01:31:38.932Z,1031.7
2017-02-09T01:32:41.377Z,1031.7
2017-02-09T01:34:46.224Z,1031.7
2017-02-09T01:35:48.667Z,1031.7
2017-02-09T01:36:51.116Z,1031.6
2017-02-09T01:37:53.563Z,1031.7
2017-02-09T01:38:56.010Z,1031.6
2017-02-09T01:39:57.955Z,1031.6
2017-02-09T01:41:00.401Z,1031.6
2017-02-09T01:42:02.853Z,1031.6
2017-02-09T01:43:05.297Z,1031.6
2017-02-09T01:44:07.740Z,1031.6
2017-02-09T01:45:10.355Z,1031.5
2017-02-09T01:47:15.205Z,1031.5
2017-02-09T01:48:17.651Z,1031.5
2017-02-09T01:49:20.118Z,1031.5
2017-02-09T01:50:22.570Z,1031.5
2017-02-09T01:51:24.851Z,1031.5
2017-02-09T01:52:27.296Z,1031.5
2017-02-09T01:53:29.743Z,1031.5
2017-02-09T01:54:32.187Z,1031.5
2017-02-09T01:56:37.060Z,1031.4
2017-02-09T01:57:39.509Z,1031.5
2017-02-09T01:58:41.957Z,1031.5
2017-02-09T01:59:44.236Z,1031.4
2017-02-09T02:00:46.513Z,1031.4
2017-02-09T02:01:48.960Z,1031.4
2017-02-09T02:02:51.413Z,1031.4
2017-02-09T02:03:53.855Z,1031.4
2017-02-09T02:04:56.301Z,1031.4
2017-02-09T02:05:58.743Z,1031.4
2017-02-09T02:07:01.185Z,1031.3
2017-02-09T02:08:03.630Z,1031.4
2017-02-09T02:09:06.079Z,1031.4
2017-02-09T02:10:08.526Z,1031.4
2017-02-09T02:11:10.826Z,1031.4
2017-02-09T02:12:13.272Z,1031.4
2017-02-09T02:13:15.719Z,1031.4
2017-02-09T02:14:18.174Z,1031.5
2017-02-09T02:15:20.952Z,1031.4
2017-02-09T02:16:23.400Z,1031.4
2017-02-09T02:18:28.254Z,1031.4
2017-02-09T02:19:30.706Z,1031.4
2017-02-09T02:20:33.156Z,1031.4
2017-02-09T02:21:35.101Z,1031.4
2017-02-09T02:22:37.547Z,1031.4
2017-02-09T02:23:39.994Z,1031.4
2017-02-09T02:24:42.439Z,1031.4
2017-02-09T02:25:45.219Z,1031.4
2017-02-09T02:27:49.902Z,1031.3
2017-02-09T02:28:52.347Z,1031.3
2017-02-09T02:29:54.851Z,1031.3
2017-02-09T02:31:59.703Z,1031.4
2017-02-09T02:33:02.152Z,1031.3
2017-02-09T02:34:04.600Z,1031.4
2017-02-09T02:35:07.052Z,1031.4
2017-02-09T02:36:09.398Z,1031.4
2017-02-09T02:37:11.848Z,1031.4
2017-02-09T02:38:14.294Z,1031.5
2017-02-09T02:40:18.980Z,1031.5
2017-02-09T02:41:21.428Z,1031.4
2017-02-09T02:42:23.875Z,1031.5
2017-02-09T02:43:26.319Z,1031.4
2017-02-09T02:44:28.765Z,1031.4
2017-02-09T02:47:35.839Z,1031.4
2017-02-09T02:48:38.280Z,1031.4
2017-02-09T02:49:40.719Z,1031.4
2017-02-09T02:50:43.156Z,1031.4
2017-02-09T02:51:45.594Z,1031.4
2017-02-09T02:52:48.394Z,1031.4
2017-02-09T02:53:50.331Z,1031.4
2017-02-09T02:54:52.767Z,1031.4
2017-02-09T02:55:55.542Z,1031.4
2017-02-09T02:56:57.982Z,1031.4
2017-02-09T02:58:00.453Z,1031.4
2017-02-09T02:59:02.896Z,1031.5
2017-02-09T03:00:05.341Z,1031.4
2017-02-09T03:02:10.025Z,1031.4
2017-02-09T03:03:12.461Z,1031.4
2017-02-09T03:04:14.897Z,1031.4
2017-02-09T03:05:17.334Z,1031.4
2017-02-09T03:06:19.775Z,1031.4
2017-02-09T03:07:22.212Z,1031.4
2017-02-09T03:08:24.652Z,1031.3
2017-02-09T03:09:27.096Z,1031.3
2017-02-09T03:10:29.536Z,1031.3
2017-02-09T03:11:31.977Z,1031.3
2017-02-09T03:12:34.254Z,1031.3
2017-02-09T03:16:44.218Z,1031.4
2017-02-09T03:17:46.156Z,1031.4
2017-02-09T03:18:48.933Z,1031.4
2017-02-09T03:19:51.379Z,1031.4
2017-02-09T03:20:53.849Z,1031.5
2017-02-09T03:21:56.315Z,1031.4
2017-02-09T03:24:01.163Z,1031.4
2017-02-09T03:25:03.608Z,1031.4
2017-02-09T03:26:06.055Z,1031.4
2017-02-09T03:27:08.326Z,1031.5
2017-02-09T03:28:10.768Z,1031.4
2017-02-09T03:29:13.216Z,1031.5
2017-02-09T03:30:15.659Z,1031.5
2017-02-09T03:31:18.100Z,1031.5
2017-02-09T03:32:20.544Z,1031.5
2017-02-09T03:33:22.992Z,1031.4
2017-02-09T03:34:25.435Z,1031.4
2017-02-09T03:35:27.879Z,1031.5
2017-02-09T03:36:30.328Z,1031.4
2017-02-09T03:37:32.781Z,1031.5
2017-02-09T03:38:35.257Z,1031.5
2017-02-09T03:39:37.195Z,1031.5
2017-02-09T03:40:39.643Z,1031.5
2017-02-09T03:41:42.090Z,1031.5
2017-02-09T03:42:44.536Z,1031.5
2017-02-09T03:43:46.982Z,1031.5
2017-02-09T03:44:49.425Z,1031.5
2017-02-09T03:46:54.273Z,1031.5
2017-02-09T03:47:56.720Z,1031.5
2017-02-09T03:48:59.163Z,1031.5
2017-02-09T03:50:01.608Z,1031.5
2017-02-09T03:51:04.055Z,1031.5
2017-02-09T03:52:06.750Z,1031.5
2017-02-09T03:53:09.026Z,1031.5
2017-02-09T03:54:11.475Z,1031.5
2017-02-09T03:55:13.918Z,1031.5
2017-02-09T03:56:16.364Z,1031.5
2017-02-09T03:57:18.810Z,1031.6
2017-02-09T03:58:21.251Z,1031.6
2017-02-09T03:59:23.694Z,1031.5
2017-02-09T04:00:26.134Z,1031.5
2017-02-09T04:01:28.575Z,1031.6
2017-02-09T04:02:31.025Z,1031.5
2017-02-09T04:03:33.490Z,1031.5
2017-02-09T04:04:35.942Z,1031.5
2017-02-09T04:05:38.384Z,1031.5
2017-02-09T04:07:43.232Z,1031.4
2017-02-09T04:08:45.675Z,1031.4
2017-02-09T04:09:48.121Z,1031.5
2017-02-09T04:10:50.573Z,1031.5
2017-02-09T04:11:52.514Z,1031.5
2017-02-09T04:12:55.297Z,1031.5
2017-02-09T04:13:57.745Z,1031.5
2017-02-09T04:15:00.190Z,1031.5
2017-02-09T04:16:02.633Z,1031.6
2017-02-09T04:17:05.077Z,1031.5
2017-02-09T04:18:07.523Z,1031.4
2017-02-09T04:19:09.796Z,1031.5
2017-02-09T04:20:12.241Z,1031.4
2017-02-09T04:21:14.681Z,1031.4
2017-02-09T04:22:17.004Z,1031.4
2017-02-09T04:24:21.853Z,1031.4
2017-02-09T04:25:24.307Z,1031.4
2017-02-09T04:26:26.750Z,1031.4
2017-02-09T04:27:29.193Z,1031.4
2017-02-09T04:28:31.637Z,1031.4
2017-02-09T04:29:34.331Z,1031.4
2017-02-09T04:30:36.776Z,1031.5
2017-02-09T04:31:38.716Z,1031.4
2017-02-09T04:32:41.156Z,1031.5
2017-02-09T04:33:43.600Z,1031.4
2017-02-09T04:34:46.064Z,1031.5
2017-02-09T04:35:48.510Z,1031.4
2017-02-09T04:36:50.953Z,1031.5
2017-02-09T04:37:53.397Z,1031.4
2017-02-09T04:38:56.183Z,1031.4
2017-02-09T04:41:01.028Z,1031.4
2017-02-09T04:42:03.472Z,1031.4
2017-02-09T04:44:08.150Z,1031.5
2017-02-09T04:45:10.593Z,1031.5
2017-02-09T04:46:13.042Z,1031.5
2017-02-09T04:47:15.484Z,1031.5
2017-02-09T04:48:17.930Z,1031.4
2017-02-09T04:49:20.373Z,1031.5
2017-02-09T04:50:22.826Z,1031.5
2017-02-09T04:51:25.268Z,1031.5
2017-02-09T04:52:27.721Z,1031.5
2017-02-09T04:54:32.399Z,1031.5
2017-02-09T04:55:34.847Z,1031.6
2017-02-09T04:56:37.286Z,1031.6
2017-02-09T04:57:39.727Z,1031.6
2017-02-09T04:58:42.175Z,1031.5
2017-02-09T04:59:44.615Z,1031.5
2017-02-09T05:00:47.057Z,1031.6
2017-02-09T05:01:49.501Z,1031.5
2017-02-09T05:02:51.949Z,1031.5
2017-02-09T05:03:54.292Z,1031.5
2017-02-09T05:04:56.571Z,1031.5
2017-02-09T05:05:59.024Z,1031.6
2017-02-09T05:07:01.469Z,1031.6
2017-02-09T05:08:03.921Z,1031.5
2017-02-09T05:09:06.704Z,1031.5
2017-02-09T05:10:09.152Z,1031.5
2017-02-09T05:11:11.595Z,1031.5
2017-02-09T05:12:14.046Z,1031.5
2017-02-09T05:13:16.491Z,1031.5
2017-02-09T05:14:18.932Z,1031.5
2017-02-09T05:15:21.371Z,1031.5
2017-02-09T05:16:23.312Z,1031.5
2017-02-09T05:18:28.499Z,1031.5
2017-02-09T05:19:30.996Z,1031.5
2017-02-09T05:20:33.441Z,1031.5
2017-02-09T05:21:35.887Z,1031.5
2017-02-09T05:22:38.327Z,1031.5
2017-02-09T05:23:40.767Z,1031.5
2017-02-09T05:24:43.211Z,1031.5
2017-02-09T05:25:45.653Z,1031.5
2017-02-09T05:26:48.097Z,1031.5
2017-02-09T05:27:50.540Z,1031.5
2017-02-09T05:29:55.380Z,1031.6
2017-02-09T05:30:57.654Z,1031.5
2017-02-09T05:32:00.097Z,1031.6
2017-02-09T05:33:02.539Z,1031.6
2017-02-09T05:34:04.983Z,1031.6
2017-02-09T05:35:07.259Z,1031.6
2017-02-09T05:36:09.875Z,1031.6
2017-02-09T05:37:12.319Z,1031.6
2017-02-09T05:38:14.768Z,1031.6
2017-02-09T05:39:17.213Z,1031.6
2017-02-09T05:40:19.661Z,1031.6
2017-02-09T05:41:22.106Z,1031.6
2017-02-09T05:42:24.380Z,1031.6
2017-02-09T05:43:26.821Z,1031.6
2017-02-09T05:44:29.268Z,1031.7
2017-02-09T05:45:31.713Z,1031.6
2017-02-09T05:46:34.153Z,1031.6
2017-02-09T05:47:36.595Z,1031.6
2017-02-09T05:48:39.039Z,1031.6
2017-02-09T05:49:41.479Z,1031.6
2017-02-09T05:50:43.921Z,1031.6
2017-02-09T05:51:46.393Z,1031.7
2017-02-09T05:52:48.836Z,1031.6
2017-02-09T05:53:51.303Z,1031.5
2017-02-09T05:54:53.752Z,1031.6
2017-02-09T05:55:56.029Z,1031.6
2017-02-09T05:56:58.473Z,1031.6
2017-02-09T05:58:00.919Z,1031.6
2017-02-09T05:59:03.363Z,1031.6
2017-02-09T06:00:05.843Z,1031.6
2017-02-09T06:01:08.288Z,1031.6
2017-02-09T06:02:10.732Z,1031.6
2017-02-09T06:03:13.183Z,1031.6
2017-02-09T06:04:15.630Z,1031.6
2017-02-09T06:05:18.070Z,1031.6
2017-02-09T06:06:20.520Z,1031.7
2017-02-09T06:07:22.488Z,1031.7
2017-02-09T06:08:24.931Z,1031.6
2017-02-09T06:09:27.375Z,1031.6
2017-02-09T06:10:29.820Z,1031.7
2017-02-09T06:11:32.261Z,1031.7
2017-02-09T06:12:34.704Z,1031.7
2017-02-09T06:13:37.170Z,1031.7
2017-02-09T06:14:39.616Z,1031.7
2017-02-09T06:15:42.058Z,1031.7
2017-02-09T06:16:44.500Z,1031.6
2017-02-09T06:17:46.945Z,1031.7
2017-02-09T06:18:49.388Z,1031.7
2017-02-09T06:19:51.832Z,1031.7
2017-02-09T06:20:54.115Z,1031.6
2017-02-09T06:21:56.558Z,1031.6
2017-02-09T06:22:59.000Z,1031.7
2017-02-09T06:24:01.439Z,1031.6
2017-02-09T06:25:03.884Z,1031.6
2017-02-09T06:26:06.321Z,1031.7
2017-02-09T06:27:08.760Z,1031.8
2017-02-09T06:28:11.541Z,1031.7
2017-02-09T06:29:13.984Z,1031.7
2017-02-09T06:30:16.429Z,1031.7
2017-02-09T06:31:18.875Z,1031.7
2017-02-09T06:32:21.317Z,1031.7
2017-02-09T06:33:23.255Z,1031.8
2017-02-09T06:34:25.698Z,1031.7
2017-02-09T06:35:28.142Z,1031.8
2017-02-09T06:36:30.586Z,1031.8
2017-02-09T06:37:33.029Z,1031.8
2017-02-09T06:38:35.481Z,1031.8
2017-02-09T06:39:37.945Z,1031.9
2017-02-09T06:40:40.410Z,1031.8
2017-02-09T06:41:42.856Z,1031.9
2017-02-09T06:42:45.302Z,1031.8
2017-02-09T06:43:47.751Z,1031.8
2017-02-09T06:44:50.195Z,1031.8
2017-02-09T06:45:52.635Z,1031.8
2017-02-09T06:46:54.906Z,1031.8
2017-02-09T06:47:57.388Z,1031.9
2017-02-09T06:49:00.166Z,1031.9
2017-02-09T06:50:02.448Z,1031.8
2017-02-09T06:51:04.894Z,1031.9
2017-02-09T06:52:07.333Z,1031.9
2017-02-09T06:53:09.610Z,1031.9
2017-02-09T06:54:12.051Z,1032
2017-02-09T06:55:14.500Z,1031.9
2017-02-09T06:56:16.943Z,1031.9
2017-02-09T06:58:21.791Z,1031.9
2017-02-09T06:59:24.232Z,1031.9
2017-02-09T07:00:26.671Z,1031.9
2017-02-09T07:01:29.118Z,1031.9
2017-02-09T07:02:31.559Z,1031.9
2017-02-09T07:03:34.005Z,1031.9
2017-02-09T07:04:36.460Z,1031.9
2017-02-09T07:05:38.905Z,1031.9
2017-02-09T07:06:41.358Z,1031.9
2017-02-09T07:07:43.803Z,1031.8
2017-02-09T07:08:46.245Z,1031.9
2017-02-09T07:09:48.687Z,1031.8
2017-02-09T07:10:51.136Z,1031.9
2017-02-09T07:11:53.578Z,1031.9
2017-02-09T07:13:58.426Z,1031.9
2017-02-09T07:15:00.866Z,1031.9
2017-02-09T07:16:03.311Z,1031.9
2017-02-09T07:17:05.760Z,1031.9
2017-02-09T07:18:08.205Z,1031.9
2017-02-09T07:19:10.648Z,1031.8
2017-02-09T07:20:13.089Z,1031.8
2017-02-09T07:21:15.532Z,1031.8
2017-02-09T07:22:17.977Z,1031.9
2017-02-09T07:23:20.417Z,1031.8
2017-02-09T07:24:22.858Z,1031.8
2017-02-09T07:25:25.298Z,1031.9
2017-02-09T07:26:27.743Z,1031.9
2017-02-09T07:27:30.182Z,1031.9
2017-02-09T07:28:32.633Z,1031.8
2017-02-09T07:29:35.100Z,1031.9
2017-02-09T07:30:37.043Z,1031.9
2017-02-09T07:31:39.823Z,1031.9
2017-02-09T07:32:42.259Z,1031.9
2017-02-09T07:33:44.701Z,1031.9
2017-02-09T07:34:47.145Z,1031.9
2017-02-09T07:35:49.590Z,1031.9
2017-02-09T07:36:52.034Z,1031.9
2017-02-09T07:37:54.503Z,1032
2017-02-09T07:38:56.949Z,1031.9
2017-02-09T07:39:59.391Z,1031.9
2017-02-09T07:42:04.240Z,1032
2017-02-09T07:43:06.690Z,1032
2017-02-09T07:44:09.136Z,1032
2017-02-09T07:45:11.578Z,1031.9
2017-02-09T07:46:14.023Z,1032
2017-02-09T07:47:16.469Z,1032.1
2017-02-09T07:48:18.409Z,1032
2017-02-09T07:49:20.850Z,1032.1
2017-02-09T07:50:23.312Z,1032.1
2017-02-09T07:51:25.760Z,1031.9
2017-02-09T07:52:28.204Z,1032
2017-02-09T07:53:30.650Z,1031.9
2017-02-09T07:54:33.113Z,1032
2017-02-09T07:55:35.900Z,1032
2017-02-09T07:56:38.342Z,1032
2017-02-09T07:57:40.788Z,1032
2017-02-09T07:58:43.239Z,1031.9
2017-02-09T07:59:45.178Z,1032
2017-02-09T08:00:47.628Z,1032
2017-02-09T08:01:50.075Z,1032
2017-02-09T08:02:52.520Z,1032
2017-02-09T08:03:55.299Z,1031.9
2017-02-09T08:04:57.739Z,1032
2017-02-09T08:06:00.179Z,1032
2017-02-09T08:07:02.623Z,1032
2017-02-09T08:08:05.064Z,1032
2017-02-09T08:09:07.528Z,1032.1
2017-02-09T08:10:09.849Z,1032.1
2017-02-09T08:11:12.293Z,1032.1
2017-02-09T08:12:14.737Z,1032.3
2017-02-09T08:13:17.211Z,1032.2
2017-02-09T08:14:19.659Z,1032.1
2017-02-09T08:15:22.102Z,1032
2017-02-09T08:16:24.547Z,1032
2017-02-09T08:17:26.992Z,1032.1
2017-02-09T08:18:29.439Z,1032
2017-02-09T08:19:31.887Z,1032
2017-02-09T08:20:34.329Z,1032.1
2017-02-09T08:21:36.603Z,1032
2017-02-09T08:22:39.112Z,1032
2017-02-09T08:24:43.961Z,1032
2017-02-09T08:25:46.406Z,1031.9
2017-02-09T08:26:48.846Z,1032
2017-02-09T08:27:51.316Z,1032.1
2017-02-09T08:28:53.596Z,1032.1
2017-02-09T08:29:56.044Z,1032.1
2017-02-09T08:30:58.489Z,1031.9
2017-02-09T08:32:00.935Z,1032
2017-02-09T08:33:03.388Z,1031.9
2017-02-09T08:34:05.664Z,1031.9
2017-02-09T08:35:08.109Z,1032
2017-02-09T08:36:10.553Z,1031.9
2017-02-09T08:37:13.000Z,1031.9
2017-02-09T08:38:15.610Z,1031.9
2017-02-09T08:39:18.076Z,1031.9
2017-02-09T08:40:20.532Z,1031.8
2017-02-09T08:41:22.976Z,1032
2017-02-09T08:42:25.429Z,1032
2017-02-09T08:43:27.897Z,1031.9
2017-02-09T08:44:30.342Z,1031.9
2017-02-09T08:45:32.791Z,1031.9
2017-02-09T08:46:35.073Z,1031.8
2017-02-09T08:47:37.513Z,1031.8
2017-02-09T08:48:39.962Z,1031.8
2017-02-09T08:49:42.408Z,1031.8
2017-02-09T08:50:44.851Z,1031.9
2017-02-09T08:51:47.303Z,1031.8
2017-02-09T08:52:49.743Z,1032
2017-02-09T08:53:52.185Z,1031.9
2017-02-09T08:54:54.629Z,1032
2017-02-09T08:55:57.072Z,1031.9
2017-02-09T08:56:59.520Z,1031.9
2017-02-09T08:58:01.961Z,1032
2017-02-09T08:59:04.406Z,1031.9
2017-02-09T09:00:06.846Z,1031.9
2017-02-09T09:01:09.118Z,1032
2017-02-09T09:02:11.562Z,1031.8
2017-02-09T09:03:14.007Z,1031.9
2017-02-09T09:04:16.291Z,1032.1
2017-02-09T09:05:18.736Z,1031.9
2017-02-09T09:06:21.182Z,1032.1
2017-02-09T09:07:23.627Z,1031.9
2017-02-09T09:08:26.067Z,1031.9
2017-02-09T09:09:28.508Z,1031.9
2017-02-09T09:10:30.954Z,1031.9
2017-02-09T09:11:33.402Z,1031.9
2017-02-09T09:12:35.853Z,1031.9
2017-02-09T09:13:38.299Z,1031.9
2017-02-09T09:14:41.080Z,1031.9
2017-02-09T09:15:43.357Z,1031.9
2017-02-09T09:16:45.804Z,1031.9
2017-02-09T09:17:48.251Z,1031.9
2017-02-09T09:18:50.527Z,1032
2017-02-09T09:19:52.971Z,1031.9
2017-02-09T09:20:55.250Z,1031.9
2017-02-09T09:21:57.695Z,1031.9
2017-02-09T09:23:00.174Z,1031.9
2017-02-09T09:24:02.617Z,1031.9
2017-02-09T09:25:05.059Z,1032
2017-02-09T09:26:07.836Z,1032
2017-02-09T09:27:10.287Z,1031.9
2017-02-09T09:28:12.778Z,1031.9
2017-02-09T09:29:14.887Z,1031.9
2017-02-09T09:30:17.353Z,1032
2017-02-09T09:31:19.802Z,1031.9
2017-02-09T09:32:22.246Z,1032
2017-02-09T09:33:24.690Z,1032
2017-02-09T09:34:27.143Z,1032
2017-02-09T09:35:29.587Z,1032
2017-02-09T09:36:32.036Z,1032
2017-02-09T09:37:34.480Z,1032
2017-02-09T09:38:36.922Z,1032.1
2017-02-09T09:39:39.366Z,1032.1
2017-02-09T09:40:41.641Z,1032
2017-02-09T09:41:44.085Z,1032
2017-02-09T09:42:46.530Z,1032
2017-02-09T09:43:48.974Z,1032
2017-02-09T09:44:51.413Z,1032
2017-02-09T09:45:53.857Z,1032
2017-02-09T09:46:56.633Z,1031.9
2017-02-09T09:47:59.074Z,1032
2017-02-09T09:49:01.517Z,1031.9
2017-02-09T09:50:03.966Z,1032
2017-02-09T09:51:05.910Z,1032
2017-02-09T09:52:08.351Z,1031.9
2017-02-09T09:53:10.803Z,1031.9
2017-02-09T09:54:13.251Z,1031.9
2017-02-09T09:55:16.031Z,1032
2017-02-09T09:56:18.475Z,1032
2017-02-09T09:57:20.919Z,1032
2017-02-09T09:58:23.366Z,1032
2017-02-09T09:59:25.639Z,1032
2017-02-09T10:00:28.087Z,1032
2017-02-09T10:01:30.530Z,1032
2017-02-09T10:02:33.008Z,1032
2017-02-09T10:03:35.313Z,1032
2017-02-09T10:04:37.758Z,1032
2017-02-09T10:05:40.200Z,1031.9
2017-02-09T10:06:42.644Z,1032
2017-02-09T10:07:45.087Z,1032
2017-02-09T10:08:47.533Z,1031.9
2017-02-09T10:09:49.973Z,1031.9
2017-02-09T10:10:52.420Z,1031.9
2017-02-09T10:11:54.865Z,1031.9
2017-02-09T10:12:57.332Z,1032
2017-02-09T10:13:59.773Z,1031.9
2017-02-09T10:15:02.221Z,1031.9
2017-02-09T10:16:04.526Z,1031.9
2017-02-09T10:17:06.969Z,1031.9
2017-02-09T10:18:09.417Z,1031.8
2017-02-09T10:19:11.864Z,1031.9
2017-02-09T10:20:14.304Z,1031.8
2017-02-09T10:21:16.752Z,1031.9
2017-02-09T10:22:19.200Z,1031.8
2017-02-09T10:23:21.981Z,1031.8
2017-02-09T10:24:24.421Z,1031.8
2017-02-09T10:25:26.868Z,1031.8
2017-02-09T10:26:29.309Z,1031.8
2017-02-09T10:27:31.751Z,1031.8
2017-02-09T10:28:34.192Z,1031.8
2017-02-09T10:29:36.635Z,1031.8
2017-02-09T10:30:39.075Z,1031.8
2017-02-09T10:31:41.522Z,1031.8
2017-02-09T10:32:43.963Z,1031.7
2017-02-09T10:33:46.406Z,1031.8
2017-02-09T10:34:48.848Z,1031.8
2017-02-09T10:35:50.816Z,1031.7
2017-02-09T10:36:53.258Z,1031.7
2017-02-09T10:37:56.111Z,1031.7
2017-02-09T10:38:58.552Z,1031.7
2017-02-09T10:40:01.002Z,1031.7
2017-02-09T10:41:03.446Z,1031.7
2017-02-09T10:42:05.897Z,1031.8
2017-02-09T10:43:08.173Z,1031.7
2017-02-09T10:44:10.648Z,1031.7
2017-02-09T10:45:12.923Z,1031.7
2017-02-09T10:46:15.363Z,1031.7
2017-02-09T10:47:17.807Z,1031.7
2017-02-09T10:48:20.252Z,1031.6
2017-02-09T10:49:22.522Z,1031.7
2017-02-09T10:50:24.968Z,1031.6
2017-02-09T10:51:27.436Z,1031.6
2017-02-09T10:52:29.881Z,1031.6
2017-02-09T10:53:32.341Z,1031.6
2017-02-09T10:54:34.784Z,1031.6
2017-02-09T10:55:37.226Z,1031.7
2017-02-09T10:56:39.674Z,1031.6
2017-02-09T10:57:42.128Z,1031.7
2017-02-09T10:58:44.573Z,1031.5
2017-02-09T10:59:47.062Z,1031.6
2017-02-09T11:00:49.507Z,1031.6
2017-02-09T11:01:51.950Z,1031.5
2017-02-09T11:02:54.395Z,1031.6
2017-02-09T11:03:56.674Z,1031.5
2017-02-09T11:04:59.112Z,1031.5
2017-02-09T11:06:01.555Z,1031.6
2017-02-09T11:08:06.910Z,1031.5
2017-02-09T11:10:11.615Z,1031.5
2017-02-09T11:11:14.062Z,1031.5
2017-02-09T11:12:16.534Z,1031.5
2017-02-09T11:13:18.988Z,1031.5
2017-02-09T11:14:21.429Z,1031.4
2017-02-09T11:15:23.870Z,1031.4
2017-02-09T11:16:26.317Z,1031.4
2017-02-09T11:17:28.764Z,1031.3
2017-02-09T11:18:31.207Z,1031.3
2017-02-09T11:19:33.651Z,1031.3
2017-02-09T11:21:38.501Z,1031.4
2017-02-09T11:22:40.947Z,1031.3
2017-02-09T11:23:43.392Z,1031.3
2017-02-09T11:24:45.835Z,1031.3
2017-02-09T11:25:48.279Z,1031.2
2017-02-09T11:26:50.728Z,1031.2
2017-02-09T11:27:53.173Z,1031.3
2017-02-09T11:28:55.613Z,1031.2
2017-02-09T11:29:58.057Z,1031.2
2017-02-09T11:31:00.497Z,1031.2
2017-02-09T11:32:02.937Z,1031.1
2017-02-09T11:33:05.376Z,1031.1
2017-02-09T11:34:07.822Z,1031.1
2017-02-09T11:35:09.931Z,1031.1
2017-02-09T11:36:12.376Z,1031.1
2017-02-09T11:37:15.004Z,1031.1
2017-02-09T11:38:17.448Z,1031
2017-02-09T11:40:22.291Z,1031
2017-02-09T11:41:24.732Z,1030.9
2017-02-09T11:42:27.178Z,1031
2017-02-09T11:43:29.636Z,1031
2017-02-09T11:44:32.101Z,1031.1
2017-02-09T11:45:34.545Z,1031
2017-02-09T11:46:36.991Z,1031.1
2017-02-09T11:47:39.459Z,1031
2017-02-09T11:48:41.906Z,1031.2
2017-02-09T11:49:44.351Z,1031
2017-02-09T11:50:46.795Z,1031.1
2017-02-09T11:51:49.240Z,1031
2017-02-09T11:52:51.678Z,1030.9
2017-02-09T11:53:54.119Z,1031
2017-02-09T11:54:56.418Z,1031
2017-02-09T11:55:58.887Z,1031
2017-02-09T11:57:01.338Z,1031.1
2017-02-09T11:58:03.782Z,1031
2017-02-09T11:59:06.391Z,1031
2017-02-09T12:00:08.837Z,1031
2017-02-09T12:01:11.280Z,1031.1
2017-02-09T12:02:13.723Z,1031
2017-02-09T12:03:16.000Z,1030.9
2017-02-09T12:05:20.851Z,1031
2017-02-09T12:06:23.132Z,1030.9
2017-02-09T12:07:25.579Z,1030.9
2017-02-09T12:08:28.023Z,1030.9
2017-02-09T12:09:30.466Z,1030.8
2017-02-09T12:10:32.907Z,1030.8
2017-02-09T12:11:35.686Z,1030.9
2017-02-09T12:12:38.130Z,1030.8
2017-02-09T12:13:40.581Z,1030.8
2017-02-09T12:14:43.021Z,1030.8
2017-02-09T12:15:45.470Z,1030.7
2017-02-09T12:16:47.930Z,1030.9
2017-02-09T12:17:50.206Z,1030.8
2017-02-09T12:18:52.651Z,1030.7
2017-02-09T12:19:55.092Z,1030.8
2017-02-09T12:20:57.534Z,1030.8
2017-02-09T12:21:59.982Z,1030.8
2017-02-09T12:23:02.426Z,1030.7
2017-02-09T12:24:04.701Z,1030.7
2017-02-09T12:25:07.474Z,1030.7
2017-02-09T12:26:09.749Z,1030.7
2017-02-09T12:27:12.193Z,1030.7
2017-02-09T12:28:14.631Z,1030.7
2017-02-09T12:29:17.074Z,1030.7
2017-02-09T12:30:19.349Z,1030.7
2017-02-09T12:31:22.129Z,1030.8
2017-02-09T12:32:24.572Z,1030.7
2017-02-09T12:34:29.255Z,1030.7
2017-02-09T12:35:32.037Z,1030.6
2017-02-09T12:36:34.482Z,1030.8
2017-02-09T12:37:36.764Z,1030.6
2017-02-09T12:38:39.210Z,1030.7
2017-02-09T12:39:41.664Z,1030.7
2017-02-09T12:40:44.109Z,1030.7
2017-02-09T12:41:46.549Z,1030.6
2017-02-09T12:42:48.989Z,1030.5
2017-02-09T12:43:51.429Z,1030.6
2017-02-09T12:44:53.869Z,1030.7
2017-02-09T12:45:56.151Z,1030.7
2017-02-09T12:46:58.598Z,1030.5
2017-02-09T12:49:03.442Z,1030.6
2017-02-09T12:50:05.886Z,1030.6
2017-02-09T12:51:08.355Z,1030.6
2017-02-09T12:52:10.798Z,1030.5
2017-02-09T12:53:13.243Z,1030.6
2017-02-09T12:54:15.686Z,1030.6
2017-02-09T12:55:18.125Z,1030.7
2017-02-09T12:56:20.567Z,1030.5
2017-02-09T12:57:23.348Z,1030.6
2017-02-09T12:58:25.789Z,1030.5
2017-02-09T12:59:28.232Z,1030.5
2017-02-09T13:00:30.675Z,1030.5
2017-02-09T13:01:32.957Z,1030.6
2017-02-09T13:02:35.569Z,1030.5
2017-02-09T13:03:38.013Z,1030.5
2017-02-09T13:04:40.458Z,1030.4
2017-02-09T13:05:42.905Z,1030.6
2017-02-09T13:06:45.353Z,1030.7
2017-02-09T13:07:47.626Z,1030.5
2017-02-09T13:08:49.909Z,1030.5
2017-02-09T13:09:52.353Z,1030.5
2017-02-09T13:10:54.799Z,1030.5
2017-02-09T13:11:57.743Z,1030.4
2017-02-09T13:13:00.185Z,1030.6
2017-02-09T13:14:02.632Z,1030.5
2017-02-09T13:16:07.479Z,1030.4
2017-02-09T13:17:09.818Z,1030.5
2017-02-09T13:18:12.263Z,1030.4
2017-02-09T13:19:14.703Z,1030.4
2017-02-09T13:20:17.151Z,1030.5
2017-02-09T13:21:19.591Z,1030.4
2017-02-09T13:22:22.035Z,1030.5
2017-02-09T13:23:24.476Z,1030.4
2017-02-09T13:24:26.916Z,1030.5
2017-02-09T13:25:29.385Z,1030.4
2017-02-09T13:26:31.832Z,1030.3
2017-02-09T13:28:36.677Z,1030.3
2017-02-09T13:29:39.142Z,1030.3
2017-02-09T13:30:41.583Z,1030.3
2017-02-09T13:32:46.434Z,1030.2
2017-02-09T13:33:48.881Z,1030.2
2017-02-09T13:34:51.328Z,1030.2
2017-02-09T13:35:53.600Z,1030.2
2017-02-09T13:36:56.052Z,1030.2
2017-02-09T13:37:58.498Z,1030.2
2017-02-09T13:39:00.947Z,1030.2
2017-02-09T13:40:03.726Z,1030.3
2017-02-09T13:41:06.336Z,1030.2
2017-02-09T13:42:08.639Z,1030.2
2017-02-09T13:43:10.942Z,1030.2
2017-02-09T13:44:13.386Z,1030.4
2017-02-09T13:45:15.827Z,1030.2
2017-02-09T13:46:18.266Z,1030.3
2017-02-09T13:47:20.710Z,1030.3
2017-02-09T13:48:23.153Z,1030.1
2017-02-09T13:49:25.591Z,1030.3
2017-02-09T13:50:28.057Z,1030.2